NKS2460 KRDU-KLGA
Flight info
| Callsign | NKS2460 |
|---|---|
| Flight time | 1h 12m |
| Altitude | 35000 |
| Route | BEXGO5 BOUSY GEARS Q87 HURTS PROUD2 |
| Aircraft | A320/M-SDE3FGHIRWY/LB1 |
Departure
| Time | 2026-05-07 01:52 |
|---|---|
| Airport | Raleigh-Durham International Airport (KRDU) |
Arrival
| Time | 2026-05-07 03:04 |
|---|---|
| Airport | LaGuardia Airport (KLGA) |
| Time | Latitude | Longitude | Altitude | Speed | Heading |
|---|---|---|---|---|---|
| 2026-05-07 01:15 | 35.87806 | -78.79347 | 392 ft | 0 kts | 135° |
| 2026-05-07 01:16 | 35.87897 | -78.79233 | 392 ft | 0 kts | 136° |
| 2026-05-07 01:41 | 35.87907 | -78.79245 | 392 ft | 4 kts | 131° |
| 2026-05-07 01:42 | 35.87922 | -78.79272 | 392 ft | 4 kts | 111° |
| 2026-05-07 01:42 | 35.87926 | -78.79302 | 392 ft | 4 kts | 73° |
| 2026-05-07 01:42 | 35.87920 | -78.79318 | 392 ft | 0 kts | 45° |
| 2026-05-07 01:44 | 35.87958 | -78.79271 | 392 ft | 18 kts | 45° |
| 2026-05-07 01:44 | 35.88094 | -78.79102 | 392 ft | 34 kts | 45° |
| 2026-05-07 01:44 | 35.88240 | -78.78917 | 391 ft | 29 kts | 46° |
| 2026-05-07 01:45 | 35.88386 | -78.78737 | 391 ft | 31 kts | 44° |
| 2026-05-07 01:45 | 35.88537 | -78.78554 | 392 ft | 27 kts | 45° |
| 2026-05-07 01:45 | 35.88671 | -78.78388 | 392 ft | 23 kts | 45° |
| 2026-05-07 01:45 | 35.88775 | -78.78260 | 392 ft | 22 kts | 45° |
| 2026-05-07 01:46 | 35.88888 | -78.78122 | 392 ft | 24 kts | 45° |
| 2026-05-07 01:46 | 35.88990 | -78.77955 | 391 ft | 22 kts | 71° |
| 2026-05-07 01:46 | 35.89046 | -78.77837 | 392 ft | 16 kts | 52° |
| 2026-05-07 01:46 | 35.89134 | -78.77744 | 392 ft | 18 kts | 46° |
| 2026-05-07 01:47 | 35.89207 | -78.77650 | 392 ft | 11 kts | 27° |
| 2026-05-07 01:47 | 35.89263 | -78.77685 | 392 ft | 0 kts | 314° |
| 2026-05-07 01:48 | 35.89274 | -78.77698 | 392 ft | 6 kts | 314° |
| 2026-05-07 01:48 | 35.89305 | -78.77737 | 392 ft | 0 kts | 315° |
| 2026-05-07 01:50 | 35.89308 | -78.77740 | 392 ft | 0 kts | 315° |
| 2026-05-07 01:50 | 35.89309 | -78.77741 | 392 ft | 0 kts | 315° |
| 2026-05-07 01:51 | 35.89350 | -78.77800 | 393 ft | 24 kts | 297° |
| 2026-05-07 01:51 | 35.89265 | -78.77949 | 391 ft | 33 kts | 226° |
| 2026-05-07 01:51 | 35.88918 | -78.78380 | 392 ft | 109 kts | 225° |
| 2026-05-07 01:52 | 35.88236 | -78.79224 | 395 ft | 169 kts | 225° |
| 2026-05-07 01:52 | 35.87381 | -78.80270 | 1157 ft | 171 kts | 226° |
| 2026-05-07 01:52 | 35.86570 | -78.81323 | 2185 ft | 167 kts | 227° |
| 2026-05-07 01:52 | 35.85748 | -78.82431 | 2903 ft | 185 kts | 229° |
| 2026-05-07 01:53 | 35.84895 | -78.83657 | 3670 ft | 190 kts | 230° |
| 2026-05-07 01:53 | 35.84040 | -78.84914 | 4331 ft | 193 kts | 230° |
| 2026-05-07 01:53 | 35.83209 | -78.86115 | 5463 ft | 156 kts | 246° |
| 2026-05-07 01:53 | 35.83091 | -78.87312 | 6693 ft | 137 kts | 276° |
| 2026-05-07 01:54 | 35.83493 | -78.88364 | 7412 ft | 142 kts | 309° |
| 2026-05-07 01:54 | 35.84489 | -78.88884 | 7773 ft | 178 kts | 5° |
| 2026-05-07 01:54 | 35.85670 | -78.88298 | 8367 ft | 193 kts | 33° |
| 2026-05-07 01:54 | 35.86751 | -78.87184 | 8833 ft | 214 kts | 43° |
| 2026-05-07 01:55 | 35.87877 | -78.85841 | 9278 ft | 236 kts | 45° |
| 2026-05-07 01:55 | 35.89101 | -78.84361 | 9480 ft | 259 kts | 44° |
| 2026-05-07 01:55 | 35.90455 | -78.82752 | 9761 ft | 283 kts | 44° |
| 2026-05-07 01:55 | 35.91950 | -78.81020 | 10130 ft | 304 kts | 43° |
| 2026-05-07 01:56 | 35.93555 | -78.79195 | 10483 ft | 326 kts | 42° |
| 2026-05-07 01:56 | 35.95282 | -78.77250 | 10852 ft | 343 kts | 42° |
| 2026-05-07 01:56 | 35.97069 | -78.75255 | 11515 ft | 349 kts | 42° |
| 2026-05-07 01:56 | 35.98884 | -78.73238 | 11998 ft | 352 kts | 41° |
| 2026-05-07 01:57 | 36.00679 | -78.71242 | 12133 ft | 352 kts | 41° |
| 2026-05-07 01:57 | 36.02495 | -78.69219 | 12165 ft | 352 kts | 41° |
| 2026-05-07 01:57 | 36.04315 | -78.67188 | 12151 ft | 353 kts | 41° |
| 2026-05-07 01:57 | 36.06137 | -78.65153 | 12150 ft | 354 kts | 41° |
| 2026-05-07 01:58 | 36.07961 | -78.63113 | 12153 ft | 354 kts | 41° |
| 2026-05-07 01:58 | 36.09781 | -78.61072 | 12165 ft | 354 kts | 41° |
| 2026-05-07 01:58 | 36.11603 | -78.59029 | 12154 ft | 353 kts | 41° |
| 2026-05-07 01:58 | 36.13423 | -78.56988 | 12161 ft | 353 kts | 41° |
| 2026-05-07 01:59 | 36.15259 | -78.54928 | 12591 ft | 357 kts | 41° |
| 2026-05-07 01:59 | 36.17106 | -78.52857 | 13374 ft | 359 kts | 41° |
| 2026-05-07 01:59 | 36.18965 | -78.50770 | 14065 ft | 362 kts | 41° |
| 2026-05-07 01:59 | 36.20836 | -78.48667 | 14742 ft | 366 kts | 41° |
| 2026-05-07 02:00 | 36.22730 | -78.46541 | 15391 ft | 369 kts | 40° |
| 2026-05-07 02:00 | 36.24640 | -78.44395 | 16009 ft | 372 kts | 40° |
| 2026-05-07 02:00 | 36.26564 | -78.42231 | 16599 ft | 376 kts | 40° |
| 2026-05-07 02:00 | 36.28590 | -78.40175 | 17195 ft | 378 kts | 34° |
| 2026-05-07 02:01 | 36.30703 | -78.38213 | 17797 ft | 381 kts | 34° |
| 2026-05-07 02:01 | 36.32804 | -78.36264 | 18370 ft | 384 kts | 34° |
| 2026-05-07 02:01 | 36.34953 | -78.34268 | 18943 ft | 387 kts | 34° |
| 2026-05-07 02:01 | 36.37120 | -78.32253 | 19521 ft | 391 kts | 34° |
| 2026-05-07 02:02 | 36.39307 | -78.30220 | 20065 ft | 394 kts | 34° |
| 2026-05-07 02:02 | 36.41512 | -78.28168 | 20606 ft | 398 kts | 34° |
| 2026-05-07 02:02 | 36.43739 | -78.26095 | 21110 ft | 402 kts | 34° |
| 2026-05-07 02:02 | 36.45982 | -78.24003 | 21626 ft | 405 kts | 34° |
| 2026-05-07 02:03 | 36.48240 | -78.21890 | 22077 ft | 408 kts | 34° |
| 2026-05-07 02:03 | 36.50514 | -78.19758 | 22533 ft | 411 kts | 34° |
| 2026-05-07 02:03 | 36.52803 | -78.17604 | 22997 ft | 414 kts | 34° |
| 2026-05-07 02:03 | 36.55112 | -78.15427 | 23463 ft | 417 kts | 34° |
| 2026-05-07 02:04 | 36.57430 | -78.13235 | 23919 ft | 420 kts | 34° |
| 2026-05-07 02:04 | 36.59765 | -78.11030 | 24357 ft | 423 kts | 34° |
| 2026-05-07 02:04 | 36.62119 | -78.08803 | 24799 ft | 426 kts | 34° |
| 2026-05-07 02:04 | 36.64479 | -78.06562 | 25237 ft | 428 kts | 34° |
| 2026-05-07 02:05 | 36.66822 | -78.04338 | 25655 ft | 430 kts | 34° |
| 2026-05-07 02:05 | 36.69209 | -78.02080 | 26088 ft | 432 kts | 34° |
| 2026-05-07 02:05 | 36.71611 | -77.99817 | 26512 ft | 434 kts | 33° |
| 2026-05-07 02:05 | 36.74027 | -77.97540 | 26918 ft | 436 kts | 34° |
| 2026-05-07 02:06 | 36.76448 | -77.95247 | 27314 ft | 439 kts | 34° |
| 2026-05-07 02:06 | 36.78882 | -77.92934 | 27699 ft | 441 kts | 34° |
| 2026-05-07 02:06 | 36.81326 | -77.90602 | 28076 ft | 443 kts | 34° |
| 2026-05-07 02:06 | 36.83777 | -77.88254 | 28439 ft | 445 kts | 34° |
| 2026-05-07 02:07 | 36.86237 | -77.85894 | 28780 ft | 447 kts | 34° |
| 2026-05-07 02:07 | 36.91200 | -77.81124 | 29498 ft | 452 kts | 35° |
| 2026-05-07 02:07 | 36.93698 | -77.78727 | 29861 ft | 454 kts | 35° |
| 2026-05-07 02:08 | 36.96202 | -77.76318 | 30205 ft | 456 kts | 35° |
| 2026-05-07 02:08 | 36.98726 | -77.73890 | 30543 ft | 458 kts | 35° |
| 2026-05-07 02:08 | 37.01259 | -77.71454 | 30874 ft | 461 kts | 35° |
| 2026-05-07 02:08 | 37.03805 | -77.69003 | 31197 ft | 463 kts | 35° |
| 2026-05-07 02:09 | 37.06361 | -77.66537 | 31517 ft | 465 kts | 35° |
| 2026-05-07 02:09 | 37.08924 | -77.64057 | 31959 ft | 464 kts | 35° |
| 2026-05-07 02:09 | 37.11480 | -77.61581 | 32407 ft | 462 kts | 35° |
| 2026-05-07 02:09 | 37.13995 | -77.59143 | 32840 ft | 462 kts | 35° |
| 2026-05-07 02:10 | 37.16554 | -77.56665 | 33026 ft | 467 kts | 35° |
| 2026-05-07 02:10 | 37.19146 | -77.54160 | 33172 ft | 473 kts | 35° |
| 2026-05-07 02:10 | 37.21770 | -77.51622 | 33291 ft | 479 kts | 34° |
| 2026-05-07 02:10 | 37.24605 | -77.49467 | 33513 ft | 475 kts | 19° |
| 2026-05-07 02:11 | 37.27760 | -77.48383 | 33821 ft | 467 kts | 2° |
| 2026-05-07 02:11 | 37.30964 | -77.48458 | 34159 ft | 457 kts | 346° |
| 2026-05-07 02:11 | 37.33950 | -77.49656 | 34516 ft | 447 kts | 329° |
| 2026-05-07 02:11 | 37.36476 | -77.51857 | 34873 ft | 438 kts | 312° |
| 2026-05-07 02:12 | 37.38353 | -77.54839 | 35034 ft | 432 kts | 296° |
| 2026-05-07 02:12 | 37.39419 | -77.58337 | 35065 ft | 428 kts | 279° |
| 2026-05-07 02:12 | 37.39585 | -77.62048 | 35064 ft | 426 kts | 263° |
| 2026-05-07 02:12 | 37.39136 | -77.65690 | 35063 ft | 427 kts | 261° |
| 2026-05-07 02:13 | 37.38912 | -77.69404 | 35063 ft | 427 kts | 274° |
| 2026-05-07 02:13 | 37.39507 | -77.73063 | 35060 ft | 429 kts | 289° |
| 2026-05-07 02:13 | 37.40910 | -77.76382 | 35062 ft | 433 kts | 305° |
| 2026-05-07 02:13 | 37.43031 | -77.79094 | 35055 ft | 440 kts | 321° |
| 2026-05-07 02:14 | 37.45730 | -77.80946 | 35055 ft | 448 kts | 337° |
| 2026-05-07 02:14 | 37.48801 | -77.81728 | 35055 ft | 456 kts | 354° |
| 2026-05-07 02:14 | 37.51976 | -77.81298 | 35050 ft | 464 kts | 12° |
| 2026-05-07 02:14 | 37.54941 | -77.79640 | 35041 ft | 472 kts | 31° |
| 2026-05-07 02:15 | 37.57412 | -77.76884 | 35038 ft | 477 kts | 45° |
| 2026-05-07 02:15 | 37.59614 | -77.73817 | 35030 ft | 478 kts | 46° |
| 2026-05-07 02:15 | 37.64056 | -77.67540 | 35030 ft | 480 kts | 46° |
| 2026-05-07 02:16 | 37.68515 | -77.61241 | 35034 ft | 481 kts | 46° |
| 2026-05-07 02:16 | 37.72992 | -77.54935 | 35031 ft | 482 kts | 46° |
| 2026-05-07 02:17 | 37.77463 | -77.48623 | 35034 ft | 482 kts | 46° |
| 2026-05-07 02:17 | 37.81943 | -77.42293 | 35040 ft | 483 kts | 46° |
| 2026-05-07 02:18 | 37.86407 | -77.35950 | 35044 ft | 483 kts | 46° |
| 2026-05-07 02:18 | 37.90847 | -77.29643 | 35042 ft | 483 kts | 46° |
| 2026-05-07 02:19 | 37.95318 | -77.23285 | 35041 ft | 483 kts | 46° |
| 2026-05-07 02:19 | 37.99780 | -77.16913 | 35041 ft | 481 kts | 46° |
| 2026-05-07 02:20 | 38.01968 | -77.13775 | 35017 ft | 468 kts | 46° |
| 2026-05-07 02:20 | 38.04093 | -77.10727 | 34986 ft | 454 kts | 46° |
| 2026-05-07 02:20 | 38.06156 | -77.07767 | 34958 ft | 440 kts | 46° |
| 2026-05-07 02:20 | 38.08175 | -77.04868 | 34321 ft | 442 kts | 46° |
| 2026-05-07 02:21 | 38.10249 | -77.01903 | 33316 ft | 454 kts | 46° |
| 2026-05-07 02:21 | 38.12355 | -76.98894 | 32635 ft | 456 kts | 46° |
| 2026-05-07 02:21 | 38.14457 | -76.95884 | 32080 ft | 455 kts | 46° |
| 2026-05-07 02:21 | 38.16552 | -76.92879 | 31565 ft | 452 kts | 46° |
| 2026-05-07 02:22 | 38.18602 | -76.89925 | 31080 ft | 449 kts | 47° |
| 2026-05-07 02:22 | 38.20656 | -76.86954 | 30541 ft | 444 kts | 47° |
| 2026-05-07 02:22 | 38.22680 | -76.84024 | 29679 ft | 438 kts | 47° |
| 2026-05-07 02:22 | 38.24685 | -76.81127 | 28808 ft | 433 kts | 47° |
| 2026-05-07 02:23 | 38.26672 | -76.78263 | 27939 ft | 429 kts | 47° |
| 2026-05-07 02:23 | 38.27974 | -76.76384 | 27435 ft | 424 kts | 46° |
| 2026-05-07 02:23 | 38.29883 | -76.73621 | 27142 ft | 407 kts | 46° |
| 2026-05-07 02:23 | 38.31730 | -76.70942 | 26996 ft | 400 kts | 46° |
| 2026-05-07 02:24 | 38.33565 | -76.68277 | 27034 ft | 401 kts | 46° |
| 2026-05-07 02:24 | 38.35400 | -76.65619 | 27026 ft | 400 kts | 46° |
| 2026-05-07 02:24 | 38.37242 | -76.62950 | 27026 ft | 400 kts | 46° |
| 2026-05-07 02:24 | 38.39077 | -76.60287 | 27026 ft | 400 kts | 46° |
| 2026-05-07 02:25 | 38.40912 | -76.57622 | 27026 ft | 400 kts | 46° |
| 2026-05-07 02:25 | 38.42747 | -76.54953 | 27026 ft | 400 kts | 46° |
| 2026-05-07 02:25 | 38.44575 | -76.52287 | 27026 ft | 400 kts | 46° |
| 2026-05-07 02:25 | 38.46405 | -76.49618 | 27027 ft | 400 kts | 46° |
| 2026-05-07 02:26 | 38.48237 | -76.46953 | 27026 ft | 399 kts | 46° |
| 2026-05-07 02:26 | 38.50070 | -76.44280 | 27026 ft | 400 kts | 46° |
| 2026-05-07 02:26 | 38.51898 | -76.41605 | 27027 ft | 399 kts | 47° |
| 2026-05-07 02:26 | 38.53723 | -76.38930 | 27026 ft | 399 kts | 47° |
| 2026-05-07 02:27 | 38.55542 | -76.36261 | 27021 ft | 399 kts | 47° |
| 2026-05-07 02:27 | 38.57364 | -76.33587 | 27017 ft | 399 kts | 47° |
| 2026-05-07 02:27 | 38.59188 | -76.30914 | 27017 ft | 399 kts | 47° |
| 2026-05-07 02:27 | 38.61010 | -76.28243 | 27017 ft | 399 kts | 47° |
| 2026-05-07 02:28 | 38.62837 | -76.25563 | 27017 ft | 399 kts | 47° |
| 2026-05-07 02:28 | 38.64658 | -76.22890 | 27017 ft | 399 kts | 47° |
| 2026-05-07 02:28 | 38.66476 | -76.20214 | 27017 ft | 399 kts | 47° |
| 2026-05-07 02:28 | 38.68292 | -76.17535 | 27017 ft | 399 kts | 47° |
| 2026-05-07 02:29 | 38.70112 | -76.14849 | 27017 ft | 399 kts | 47° |
| 2026-05-07 02:29 | 38.71930 | -76.12166 | 27012 ft | 399 kts | 47° |
| 2026-05-07 02:29 | 38.73729 | -76.09514 | 27009 ft | 399 kts | 47° |
| 2026-05-07 02:29 | 38.75553 | -76.06831 | 27009 ft | 399 kts | 47° |
| 2026-05-07 02:30 | 38.77373 | -76.04143 | 27007 ft | 400 kts | 47° |
| 2026-05-07 02:30 | 38.79190 | -76.01446 | 27008 ft | 400 kts | 47° |
| 2026-05-07 02:30 | 38.81008 | -75.98743 | 27006 ft | 400 kts | 47° |
| 2026-05-07 02:30 | 38.82822 | -75.96042 | 27009 ft | 399 kts | 47° |
| 2026-05-07 02:31 | 38.84635 | -75.93347 | 27007 ft | 399 kts | 47° |
| 2026-05-07 02:31 | 38.86452 | -75.90655 | 27007 ft | 399 kts | 47° |
| 2026-05-07 02:31 | 38.88268 | -75.87960 | 27007 ft | 399 kts | 47° |
| 2026-05-07 02:31 | 38.90078 | -75.85271 | 27010 ft | 398 kts | 47° |
| 2026-05-07 02:32 | 38.91889 | -75.82578 | 27000 ft | 398 kts | 47° |
| 2026-05-07 02:32 | 38.93717 | -75.79897 | 26999 ft | 398 kts | 43° |
| 2026-05-07 02:32 | 38.95781 | -75.77564 | 26998 ft | 394 kts | 33° |
| 2026-05-07 02:32 | 38.97998 | -75.75477 | 27001 ft | 394 kts | 33° |
| 2026-05-07 02:33 | 39.00215 | -75.73394 | 26992 ft | 394 kts | 33° |
| 2026-05-07 02:33 | 39.02429 | -75.71309 | 26989 ft | 394 kts | 33° |
| 2026-05-07 02:33 | 39.04611 | -75.69251 | 26990 ft | 394 kts | 33° |
| 2026-05-07 02:33 | 39.06820 | -75.67159 | 26777 ft | 394 kts | 33° |
| 2026-05-07 02:34 | 39.09051 | -75.65045 | 25596 ft | 402 kts | 33° |
| 2026-05-07 02:34 | 39.11284 | -75.62920 | 25062 ft | 392 kts | 33° |
| 2026-05-07 02:34 | 39.13447 | -75.60857 | 24811 ft | 385 kts | 33° |
| 2026-05-07 02:34 | 39.15597 | -75.58808 | 24561 ft | 383 kts | 33° |
| 2026-05-07 02:35 | 39.17736 | -75.56767 | 24302 ft | 382 kts | 33° |
| 2026-05-07 02:35 | 39.19864 | -75.54737 | 24060 ft | 380 kts | 33° |
| 2026-05-07 02:35 | 39.21986 | -75.52714 | 23932 ft | 377 kts | 33° |
| 2026-05-07 02:35 | 39.24112 | -75.50699 | 23932 ft | 380 kts | 32° |
| 2026-05-07 02:36 | 39.26268 | -75.48740 | 23686 ft | 378 kts | 31° |
| 2026-05-07 02:36 | 39.28441 | -75.46824 | 23434 ft | 377 kts | 30° |
| 2026-05-07 02:36 | 39.30587 | -75.44962 | 23190 ft | 375 kts | 30° |
| 2026-05-07 02:36 | 39.32754 | -75.43082 | 22937 ft | 374 kts | 30° |
| 2026-05-07 02:37 | 39.34907 | -75.41198 | 22689 ft | 373 kts | 31° |
| 2026-05-07 02:37 | 39.37046 | -75.39309 | 22437 ft | 372 kts | 31° |
| 2026-05-07 02:37 | 39.39173 | -75.37418 | 22186 ft | 371 kts | 31° |
| 2026-05-07 02:37 | 39.41292 | -75.35522 | 21935 ft | 370 kts | 31° |
| 2026-05-07 02:38 | 39.43403 | -75.33631 | 21683 ft | 369 kts | 31° |
| 2026-05-07 02:38 | 39.45510 | -75.31746 | 21434 ft | 367 kts | 31° |
| 2026-05-07 02:38 | 39.47612 | -75.29870 | 21185 ft | 366 kts | 31° |
| 2026-05-07 02:38 | 39.49711 | -75.28000 | 20942 ft | 365 kts | 31° |
| 2026-05-07 02:39 | 39.51796 | -75.26130 | 20683 ft | 365 kts | 31° |
| 2026-05-07 02:39 | 39.53862 | -75.24227 | 20429 ft | 363 kts | 32° |
| 2026-05-07 02:39 | 39.55907 | -75.22307 | 20185 ft | 362 kts | 32° |
| 2026-05-07 02:39 | 39.57937 | -75.20382 | 19932 ft | 361 kts | 32° |
| 2026-05-07 02:40 | 39.59940 | -75.18481 | 19684 ft | 360 kts | 32° |
| 2026-05-07 02:40 | 39.61959 | -75.16571 | 19434 ft | 359 kts | 32° |
| 2026-05-07 02:40 | 39.63982 | -75.14664 | 19182 ft | 358 kts | 32° |
| 2026-05-07 02:40 | 39.65995 | -75.12770 | 18949 ft | 357 kts | 32° |
| 2026-05-07 02:41 | 39.68006 | -75.10884 | 18589 ft | 356 kts | 31° |
| 2026-05-07 02:41 | 39.70037 | -75.09061 | 18196 ft | 353 kts | 30° |
| 2026-05-07 02:41 | 39.72080 | -75.07306 | 17857 ft | 351 kts | 29° |
| 2026-05-07 02:41 | 39.74124 | -75.05581 | 17545 ft | 350 kts | 28° |
| 2026-05-07 02:42 | 39.76162 | -75.03864 | 17168 ft | 348 kts | 29° |
| 2026-05-07 02:42 | 39.78189 | -75.02147 | 16785 ft | 347 kts | 29° |
| 2026-05-07 02:42 | 39.80205 | -75.00423 | 16406 ft | 346 kts | 30° |
| 2026-05-07 02:42 | 39.82210 | -74.98693 | 16028 ft | 345 kts | 30° |
| 2026-05-07 02:43 | 39.84206 | -74.96968 | 15651 ft | 343 kts | 30° |
| 2026-05-07 02:43 | 39.86192 | -74.95241 | 15273 ft | 343 kts | 31° |
| 2026-05-07 02:43 | 39.88154 | -74.93485 | 14896 ft | 342 kts | 31° |
| 2026-05-07 02:43 | 39.90105 | -74.91709 | 14520 ft | 341 kts | 32° |
| 2026-05-07 02:44 | 39.91996 | -74.89915 | 14150 ft | 341 kts | 38° |
| 2026-05-07 02:44 | 39.93663 | -74.87714 | 13777 ft | 341 kts | 46° |
| 2026-05-07 02:44 | 39.95249 | -74.85420 | 13404 ft | 340 kts | 46° |
| 2026-05-07 02:44 | 39.96835 | -74.83140 | 13024 ft | 339 kts | 46° |
| 2026-05-07 02:45 | 39.98420 | -74.80876 | 12659 ft | 338 kts | 46° |
| 2026-05-07 02:45 | 40.00009 | -74.78609 | 12285 ft | 338 kts | 46° |
| 2026-05-07 02:45 | 40.01594 | -74.76342 | 11905 ft | 337 kts | 46° |
| 2026-05-07 02:45 | 40.03171 | -74.74075 | 11522 ft | 338 kts | 46° |
| 2026-05-07 02:46 | 40.04752 | -74.71807 | 11196 ft | 336 kts | 46° |
| 2026-05-07 02:46 | 40.06315 | -74.69577 | 10952 ft | 331 kts | 46° |
| 2026-05-07 02:46 | 40.07864 | -74.67362 | 10538 ft | 330 kts | 46° |
| 2026-05-07 02:46 | 40.09393 | -74.65158 | 10082 ft | 323 kts | 46° |
| 2026-05-07 02:47 | 40.10877 | -74.63012 | 9899 ft | 319 kts | 46° |
| 2026-05-07 02:47 | 40.12387 | -74.60836 | 9739 ft | 326 kts | 46° |
| 2026-05-07 02:47 | 40.13889 | -74.58678 | 9559 ft | 325 kts | 46° |
| 2026-05-07 02:47 | 40.15410 | -74.56490 | 9383 ft | 325 kts | 46° |
| 2026-05-07 02:48 | 40.16927 | -74.54299 | 9206 ft | 325 kts | 47° |
| 2026-05-07 02:48 | 40.18440 | -74.52105 | 9033 ft | 324 kts | 47° |
| 2026-05-07 02:48 | 40.19951 | -74.49922 | 8848 ft | 323 kts | 46° |
| 2026-05-07 02:48 | 40.21497 | -74.47795 | 8673 ft | 321 kts | 44° |
| 2026-05-07 02:49 | 40.23094 | -74.45750 | 8499 ft | 320 kts | 42° |
| 2026-05-07 02:49 | 40.24710 | -74.43749 | 8335 ft | 319 kts | 41° |
| 2026-05-07 02:49 | 40.26325 | -74.41762 | 8149 ft | 319 kts | 41° |
| 2026-05-07 02:49 | 40.27936 | -74.39771 | 7976 ft | 318 kts | 42° |
| 2026-05-07 02:50 | 40.29532 | -74.37777 | 7806 ft | 317 kts | 42° |
| 2026-05-07 02:50 | 40.31119 | -74.35781 | 7641 ft | 316 kts | 42° |
| 2026-05-07 02:50 | 40.32699 | -74.33785 | 7462 ft | 315 kts | 43° |
| 2026-05-07 02:50 | 40.34271 | -74.31795 | 7290 ft | 313 kts | 43° |
| 2026-05-07 02:51 | 40.35833 | -74.29810 | 7111 ft | 312 kts | 43° |
| 2026-05-07 02:51 | 40.37391 | -74.27831 | 6944 ft | 312 kts | 43° |
| 2026-05-07 02:51 | 40.38927 | -74.25882 | 6769 ft | 311 kts | 43° |
| 2026-05-07 02:51 | 40.40483 | -74.23910 | 6603 ft | 310 kts | 43° |
| 2026-05-07 02:52 | 40.42030 | -74.21951 | 6434 ft | 309 kts | 43° |
| 2026-05-07 02:52 | 40.43525 | -74.19933 | 6259 ft | 308 kts | 51° |
| 2026-05-07 02:52 | 40.44767 | -74.17647 | 6017 ft | 307 kts | 56° |
| 2026-05-07 02:52 | 40.45923 | -74.15302 | 5678 ft | 305 kts | 63° |
| 2026-05-07 02:53 | 40.46543 | -74.12673 | 5362 ft | 300 kts | 82° |
| 2026-05-07 02:53 | 40.46959 | -74.09993 | 5044 ft | 300 kts | 81° |
| 2026-05-07 02:53 | 40.47372 | -74.07341 | 4780 ft | 293 kts | 80° |
| 2026-05-07 02:53 | 40.47747 | -74.04703 | 4437 ft | 294 kts | 81° |
| 2026-05-07 02:54 | 40.48132 | -74.02089 | 4143 ft | 292 kts | 81° |
| 2026-05-07 02:54 | 40.48542 | -73.99501 | 3886 ft | 288 kts | 81° |
| 2026-05-07 02:54 | 40.48922 | -73.96973 | 3627 ft | 286 kts | 79° |
| 2026-05-07 02:54 | 40.49270 | -73.94414 | 3362 ft | 283 kts | 82° |
| 2026-05-07 02:55 | 40.49657 | -73.91849 | 2818 ft | 290 kts | 81° |
| 2026-05-07 02:55 | 40.50075 | -73.89246 | 2485 ft | 290 kts | 80° |
| 2026-05-07 02:55 | 40.50483 | -73.86677 | 2313 ft | 283 kts | 82° |
| 2026-05-07 02:55 | 40.50919 | -73.84227 | 2309 ft | 264 kts | 81° |
| 2026-05-07 02:56 | 40.51344 | -73.81971 | 2312 ft | 242 kts | 81° |
| 2026-05-07 02:56 | 40.51740 | -73.79930 | 2310 ft | 219 kts | 80° |
| 2026-05-07 02:56 | 40.52113 | -73.78027 | 2315 ft | 212 kts | 81° |
| 2026-05-07 02:56 | 40.52486 | -73.76153 | 2298 ft | 214 kts | 80° |
| 2026-05-07 02:57 | 40.52857 | -73.74274 | 2303 ft | 213 kts | 81° |
| 2026-05-07 02:57 | 40.53227 | -73.72386 | 2279 ft | 214 kts | 80° |
| 2026-05-07 02:57 | 40.53818 | -73.70685 | 2275 ft | 210 kts | 56° |
| 2026-05-07 02:57 | 40.54956 | -73.69510 | 2106 ft | 212 kts | 25° |
| 2026-05-07 02:58 | 40.56390 | -73.69184 | 2029 ft | 209 kts | 5° |
| 2026-05-07 02:58 | 40.57830 | -73.69087 | 1980 ft | 205 kts | 5° |
| 2026-05-07 02:58 | 40.59244 | -73.68986 | 1935 ft | 203 kts | 6° |
| 2026-05-07 02:58 | 40.60634 | -73.68883 | 1873 ft | 202 kts | 0° |
| 2026-05-07 02:59 | 40.62009 | -73.68777 | 1780 ft | 200 kts | 5° |
| 2026-05-07 02:59 | 40.63388 | -73.68671 | 1703 ft | 198 kts | 6° |
| 2026-05-07 02:59 | 40.64717 | -73.68572 | 1713 ft | 181 kts | 6° |
| 2026-05-07 02:59 | 40.65908 | -73.68488 | 1699 ft | 163 kts | 6° |
| 2026-05-07 03:00 | 40.67020 | -73.68498 | 1698 ft | 157 kts | 354° |
| 2026-05-07 03:00 | 40.68059 | -73.68907 | 1704 ft | 156 kts | 336° |
| 2026-05-07 03:00 | 40.68961 | -73.69706 | 1703 ft | 157 kts | 318° |
| 2026-05-07 03:00 | 40.69680 | -73.70790 | 1707 ft | 157 kts | 308° |
| 2026-05-07 03:01 | 40.70326 | -73.71950 | 1707 ft | 157 kts | 306° |
| 2026-05-07 03:01 | 40.70948 | -73.73136 | 1716 ft | 156 kts | 305° |
| 2026-05-07 03:01 | 40.71543 | -73.74300 | 1723 ft | 152 kts | 304° |
| 2026-05-07 03:01 | 40.72117 | -73.75436 | 1717 ft | 150 kts | 304° |
| 2026-05-07 03:02 | 40.72694 | -73.76582 | 1711 ft | 149 kts | 304° |
| 2026-05-07 03:02 | 40.73268 | -73.77723 | 1611 ft | 150 kts | 303° |
| 2026-05-07 03:02 | 40.73877 | -73.78760 | 1328 ft | 137 kts | 307° |
| 2026-05-07 03:02 | 40.74416 | -73.79771 | 1022 ft | 135 kts | 304° |
| 2026-05-07 03:03 | 40.74986 | -73.80864 | 723 ft | 154 kts | 304° |
| 2026-05-07 03:03 | 40.75476 | -73.82031 | 557 ft | 139 kts | 300° |
| 2026-05-07 03:03 | 40.75959 | -73.83100 | 435 ft | 133 kts | 303° |
| 2026-05-07 03:03 | 40.76452 | -73.84129 | 273 ft | 132 kts | 304° |
| 2026-05-07 03:04 | 40.76942 | -73.85150 | 139 ft | 131 kts | 303° |
| 2026-05-07 03:04 | 40.77436 | -73.86158 | 26 ft | 124 kts | 297° |
| 2026-05-07 03:04 | 40.77821 | -73.87000 | 17 ft | 76 kts | 301° |
| 2026-05-07 03:04 | 40.77913 | -73.87280 | 14 ft | 11 kts | 238° |
| 2026-05-07 03:05 | 40.77886 | -73.87344 | 14 ft | 1 kts | 240° |
| 2026-05-07 03:05 | 40.77885 | -73.87344 | 14 ft | 0 kts | 240° |
| 2026-05-07 03:05 | 40.77884 | -73.87348 | 14 ft | 5 kts | 238° |
| 2026-05-07 03:05 | 40.77806 | -73.87401 | 14 ft | 14 kts | 175° |
| 2026-05-07 03:06 | 40.77770 | -73.87292 | 15 ft | 14 kts | 112° |
| 2026-05-07 03:06 | 40.77708 | -73.87241 | 19 ft | 11 kts | 146° |
| 2026-05-07 03:06 | 40.77641 | -73.87223 | 20 ft | 7 kts | 183° |
| 2026-05-07 03:06 | 40.77622 | -73.87226 | 20 ft | 0 kts | 187° |
| 2026-05-07 03:10 | 40.77623 | -73.87247 | 20 ft | 0 kts | 176° |
| 2026-05-07 03:11 | 40.77635 | -73.87383 | 20 ft | 0 kts | 171° |
| 2026-05-07 03:11 | 40.77633 | -73.87382 | 20 ft | 0 kts | 171° |